createdAt,value
2022-09-01T00:02:16.353Z,14.68
2022-09-01T00:05:20.715Z,14.76
2022-09-01T00:08:24.841Z,14.87
2022-09-01T00:11:30.410Z,14.96
2022-09-01T00:14:38.510Z,15.06
2022-09-01T00:17:45.538Z,15.11
2022-09-01T00:20:48.702Z,15.16
2022-09-01T00:23:53.277Z,15.24
2022-09-01T00:26:58.043Z,15.28
2022-09-01T00:30:02.277Z,15.32
2022-09-01T00:33:05.977Z,15.41
2022-09-01T00:36:10.370Z,15.49
2022-09-01T00:39:14.236Z,15.61
2022-09-01T00:42:17.853Z,15.76
2022-09-01T00:45:22.360Z,15.90
2022-09-01T00:48:28.363Z,16.02
2022-09-01T00:51:33.897Z,16.20
2022-09-01T00:54:41.955Z,16.39
2022-09-01T00:57:47.055Z,16.58
2022-09-01T01:00:54.086Z,16.84
2022-09-01T01:03:58.136Z,17.00
2022-09-01T01:07:03.814Z,17.33
2022-09-01T01:10:09.245Z,17.64
2022-09-01T01:13:16.503Z,17.92
2022-09-01T01:16:21.120Z,18.02
2022-09-01T01:19:53.669Z,18.31
2022-09-01T01:23:07.119Z,18.56
2022-09-01T01:26:12.452Z,18.94
2022-09-01T01:29:18.192Z,19.27
2022-09-01T01:32:22.565Z,19.79
2022-09-01T01:35:26.860Z,20.45
2022-09-01T01:38:31.367Z,21.05
2022-09-01T01:41:36.810Z,21.49
2022-09-01T01:44:41.669Z,21.79
2022-09-01T01:47:56.955Z,21.72
2022-09-01T01:51:03.368Z,21.73
2022-09-01T01:54:07.781Z,22.04
2022-09-01T01:57:12.061Z,22.46
2022-09-01T02:00:30.174Z,22.85
2022-09-01T02:03:39.452Z,23.03
2022-09-01T02:06:46.645Z,23.27
2022-09-01T02:09:52.486Z,23.96
2022-09-01T02:13:04.909Z,24.55
2022-09-01T02:16:13.686Z,24.85
2022-09-01T02:19:21.486Z,24.89
2022-09-01T02:22:25.684Z,24.83
2022-09-01T02:25:30.236Z,25.38
2022-09-01T02:28:37.638Z,25.38
2022-09-01T02:31:42.331Z,24.24
2022-09-01T02:34:54.545Z,23.76
2022-09-01T02:38:01.390Z,23.71
2022-09-01T02:41:05.328Z,25.18
2022-09-01T02:44:12.329Z,24.89
2022-09-01T02:47:16.999Z,25.49
2022-09-01T02:50:23.048Z,25.42
2022-09-01T02:53:27.597Z,24.52
2022-09-01T02:56:31.498Z,24.21
2022-09-01T02:59:43.163Z,25.42
2022-09-01T03:02:55.615Z,27.50
2022-09-01T03:06:00.892Z,28.13
2022-09-01T03:09:07.020Z,28.93
2022-09-01T03:12:11.169Z,28.90
2022-09-01T03:15:14.906Z,29.04
2022-09-01T03:18:19.606Z,29.89
2022-09-01T03:21:24.387Z,29.54
2022-09-01T03:24:28.296Z,29.69
2022-09-01T03:27:32.016Z,29.72
2022-09-01T03:30:41.253Z,30.12
2022-09-01T03:33:45.515Z,29.54
2022-09-01T03:36:57.957Z,29.40
2022-09-01T03:40:05.966Z,28.57
2022-09-01T03:43:13.822Z,29.66
2022-09-01T03:46:22.307Z,29.84
2022-09-01T03:49:29.567Z,29.21
2022-09-01T03:52:34.204Z,28.83
2022-09-01T03:55:39.017Z,29.11
2022-09-01T03:58:47.801Z,28.81
2022-09-01T04:01:53.865Z,29.48
2022-09-01T04:04:59.617Z,29.08
2022-09-01T04:08:08.653Z,30.32
2022-09-01T04:11:19.033Z,30.37
2022-09-01T04:14:26.579Z,30.36
2022-09-01T04:17:51.898Z,28.86
2022-09-01T04:20:58.626Z,28.75
2022-09-01T04:24:05.789Z,28.22
2022-09-01T04:27:11.501Z,28.29
2022-09-01T04:30:15.413Z,28.53
2022-09-01T04:33:25.611Z,28.42
2022-09-01T04:36:34.686Z,28.23
2022-09-01T04:39:40.058Z,28.72
2022-09-01T04:42:45.618Z,28.38
2022-09-01T04:45:52.919Z,28.10
2022-09-01T04:48:58.258Z,27.96
2022-09-01T04:52:02.684Z,28.03
2022-09-01T04:55:06.333Z,27.62
2022-09-01T04:58:14.507Z,27.65
2022-09-01T05:01:22.229Z,27.61
2022-09-01T05:04:29.479Z,27.85
2022-09-01T05:07:38.115Z,27.94
2022-09-01T05:10:44.474Z,28.12
2022-09-01T05:13:58.115Z,28.67
2022-09-01T05:17:02.772Z,29.23
2022-09-01T05:20:08.154Z,29.30
2022-09-01T05:23:20.328Z,28.88
2022-09-01T05:26:30.602Z,29.28
2022-09-01T05:29:35.200Z,29.42
2022-09-01T05:32:40.383Z,29.59
2022-09-01T05:36:00.788Z,29.91
2022-09-01T05:39:06.410Z,29.61
2022-09-01T05:42:10.789Z,29.96
2022-09-01T05:45:20.972Z,29.08
2022-09-01T05:48:26.234Z,30.00
2022-09-01T05:51:50.753Z,32.49
2022-09-01T05:55:00.897Z,33.74
2022-09-01T05:58:06.256Z,34.67
2022-09-01T06:01:13.911Z,31.16
2022-09-01T06:04:17.225Z,30.36
2022-09-01T06:07:25.573Z,32.10
2022-09-01T06:10:31.269Z,31.22
2022-09-01T06:13:35.826Z,29.18
2022-09-01T06:16:39.870Z,29.12
2022-09-01T06:19:44.748Z,28.24
2022-09-01T06:22:49.434Z,29.42
2022-09-01T06:25:53.458Z,28.75
2022-09-01T06:29:02.977Z,27.45
2022-09-01T06:32:10.850Z,27.17
2022-09-01T06:35:18.615Z,28.11
2022-09-01T06:38:22.709Z,27.79
2022-09-01T06:41:26.622Z,28.10
2022-09-01T06:44:33.090Z,29.30
2022-09-01T06:47:46.047Z,30.33
2022-09-01T06:54:15.358Z,30.62
2022-09-01T07:00:44.411Z,32.19
2022-09-01T07:03:53.880Z,31.53
2022-09-01T07:14:26.558Z,31.68
2022-09-01T07:17:31.669Z,31.87
2022-09-01T07:21:02.762Z,32.08
2022-09-01T07:24:10.514Z,31.99
2022-09-01T07:30:57.423Z,31.80
2022-09-01T07:44:39.322Z,33.84
2022-09-01T07:48:08.614Z,32.88
2022-09-01T07:51:39.034Z,31.81
2022-09-01T07:54:43.892Z,31.72
2022-09-01T07:57:48.492Z,31.69
2022-09-01T08:00:55.016Z,31.82
2022-09-01T08:04:02.947Z,32.52
2022-09-01T08:07:06.282Z,32.81
2022-09-01T08:10:10.761Z,32.67
2022-09-01T08:13:16.814Z,31.23
2022-09-01T08:16:23.589Z,32.96
2022-09-01T08:19:29.841Z,32.24
2022-09-01T08:22:59.811Z,33.45
2022-09-01T08:26:10.420Z,34.56
2022-09-01T08:29:15.197Z,32.42
2022-09-01T08:32:21.136Z,31.07
2022-09-01T08:35:25.014Z,31.87
2022-09-01T08:38:29.521Z,31.39
2022-09-01T08:41:51.968Z,32.49
2022-09-01T08:45:00.223Z,34.10
2022-09-01T08:49:09.828Z,35.61
2022-09-01T08:51:50.952Z,34.30
2022-09-01T08:55:06.964Z,34.64
2022-09-01T08:58:16.628Z,36.11
2022-09-01T09:01:56.217Z,35.70
2022-09-01T09:05:18.737Z,34.14
2022-09-01T09:08:45.791Z,33.59
2022-09-01T09:12:08.780Z,35.32
2022-09-01T09:15:16.224Z,34.25
2022-09-01T09:18:39.244Z,32.10
2022-09-01T09:21:48.140Z,31.26
2022-09-01T09:24:58.921Z,31.16
2022-09-01T09:28:02.801Z,29.86
2022-09-01T09:31:29.897Z,29.12
2022-09-01T09:34:43.217Z,29.35
2022-09-01T09:37:47.119Z,28.96
2022-09-01T09:41:17.306Z,28.67
2022-09-01T09:44:31.281Z,31.59
2022-09-01T09:47:43.567Z,33.63
2022-09-01T09:50:48.055Z,34.88
2022-09-01T09:53:56.511Z,31.36
2022-09-01T09:57:15.186Z,32.19
2022-09-01T10:00:33.152Z,34.00
2022-09-01T10:03:46.556Z,34.73
2022-09-01T10:06:50.553Z,33.08
2022-09-01T10:09:57.925Z,33.32
2022-09-01T10:13:03.072Z,33.50
2022-09-01T10:16:22.108Z,33.97
2022-09-01T10:19:35.105Z,33.66
2022-09-01T10:22:41.869Z,33.44
2022-09-01T10:25:51.579Z,33.39
2022-09-01T10:29:11.338Z,32.79
2022-09-01T10:32:46.629Z,31.87
2022-09-01T10:35:54.623Z,31.40
2022-09-01T10:39:04.664Z,30.33
2022-09-01T10:42:19.607Z,28.71
2022-09-01T10:45:34.410Z,27.90
2022-09-01T10:48:51.931Z,27.11
2022-09-01T10:52:07.532Z,26.70
2022-09-01T10:55:25.005Z,26.36
2022-09-01T11:02:29.492Z,25.75
2022-09-01T11:06:13.469Z,25.59
2022-09-01T11:09:42.249Z,25.38
2022-09-01T11:13:27.570Z,25.12
2022-09-01T11:16:47.908Z,24.98
2022-09-01T11:20:25.562Z,24.82
2022-09-01T11:23:31.828Z,24.65
2022-09-01T11:26:38.947Z,24.48
2022-09-01T11:30:13.682Z,24.28
2022-09-01T11:33:43.651Z,24.12
2022-09-01T11:36:53.774Z,24.01
2022-09-01T11:40:01.292Z,23.88
2022-09-01T11:43:16.537Z,23.80
2022-09-01T11:46:30.063Z,23.66
2022-09-01T11:49:41.140Z,23.61
2022-09-01T11:53:05.374Z,23.52
2022-09-01T11:56:20.739Z,23.42
2022-09-01T11:59:37.032Z,23.35
2022-09-01T12:02:52.085Z,23.22
2022-09-01T12:06:06.311Z,23.10
2022-09-01T12:09:10.119Z,22.98
2022-09-01T12:12:46.140Z,22.91
2022-09-01T12:16:17.447Z,22.84
2022-09-01T12:19:28.269Z,22.68
2022-09-01T12:22:31.789Z,22.50
2022-09-01T12:25:36.011Z,22.39
2022-09-01T12:28:42.315Z,22.37
2022-09-01T12:31:51.167Z,22.29
2022-09-01T12:35:10.776Z,22.26
2022-09-01T12:38:32.737Z,22.20
2022-09-01T12:41:40.545Z,22.10
2022-09-01T12:44:47.647Z,22.01
2022-09-01T12:47:51.506Z,21.90
2022-09-01T12:50:56.455Z,21.83
2022-09-01T12:54:04.779Z,21.78
2022-09-01T12:57:10.186Z,21.68
2022-09-01T13:00:16.142Z,21.55
2022-09-01T13:03:22.298Z,21.51
2022-09-01T13:06:26.060Z,21.44
2022-09-01T13:09:30.731Z,21.38
2022-09-01T13:12:34.281Z,21.23
2022-09-01T13:15:40.280Z,21.14
2022-09-01T13:22:08.219Z,20.83
2022-09-01T13:25:19.127Z,20.67
2022-09-01T13:31:35.561Z,20.46
2022-09-01T13:34:40.667Z,20.37
2022-09-01T13:37:44.561Z,20.31
2022-09-01T13:40:51.215Z,20.25
2022-09-01T13:43:55.437Z,20.13
2022-09-01T13:46:59.687Z,20.05
2022-09-01T13:50:06.927Z,19.97
2022-09-01T13:53:12.378Z,19.87
2022-09-01T13:56:16.058Z,19.85
2022-09-01T13:59:20.330Z,19.79
2022-09-01T14:02:24.166Z,19.70
2022-09-01T14:05:33.595Z,19.67
2022-09-01T14:08:37.499Z,19.62
2022-09-01T14:11:41.390Z,19.61
2022-09-01T14:18:08.789Z,19.61
2022-09-01T14:21:17.521Z,19.60
2022-09-01T14:24:22.306Z,19.59
2022-09-01T14:27:25.797Z,19.57
2022-09-01T14:30:31.837Z,19.58
2022-09-01T14:33:37.244Z,19.54
2022-09-01T14:36:41.781Z,19.44
2022-09-01T14:39:57.835Z,19.49
2022-09-01T14:43:02.118Z,19.48
2022-09-01T14:46:11.328Z,19.45
2022-09-01T14:49:21.731Z,19.37
2022-09-01T14:52:25.820Z,19.31
2022-09-01T14:55:30.687Z,19.26
2022-09-01T14:58:34.776Z,19.19
2022-09-01T15:01:38.777Z,19.18
2022-09-01T15:04:43.228Z,19.15
2022-09-01T15:07:46.780Z,19.21
2022-09-01T15:10:50.557Z,19.16
2022-09-01T15:13:54.932Z,19.14
2022-09-01T15:16:58.707Z,19.11
2022-09-01T15:20:23.443Z,19.12
2022-09-01T15:23:27.706Z,19.08
2022-09-01T15:26:32.693Z,19.08
2022-09-01T15:29:46.708Z,19.08
2022-09-01T15:32:53.103Z,19.06
2022-09-01T15:35:56.486Z,19.01
2022-09-01T15:39:00.739Z,18.97
2022-09-01T15:42:05.569Z,18.87
2022-09-01T15:45:16.189Z,18.85
2022-09-01T15:48:20.018Z,18.67
2022-09-01T15:51:23.279Z,18.58
2022-09-01T15:54:30.647Z,18.55
2022-09-01T15:57:35.858Z,18.53
2022-09-01T16:00:42.728Z,18.50
2022-09-01T16:03:46.987Z,18.51
2022-09-01T16:06:51.556Z,18.48
2022-09-01T16:09:58.666Z,18.48
2022-09-01T16:13:02.760Z,18.42
2022-09-01T16:16:40.691Z,18.49
2022-09-01T16:19:54.907Z,18.42
2022-09-01T16:23:17.168Z,18.39
2022-09-01T16:26:23.766Z,18.39
2022-09-01T16:29:48.229Z,18.35
2022-09-01T16:32:52.195Z,18.24
2022-09-01T16:35:56.808Z,18.33
2022-09-01T16:39:55.073Z,18.30
2022-09-01T16:43:25.194Z,18.28
2022-09-01T16:46:48.300Z,18.28
2022-09-01T16:50:06.203Z,18.19
2022-09-01T16:53:29.007Z,18.13
2022-09-01T16:56:37.856Z,18.05
2022-09-01T16:59:55.735Z,17.97
2022-09-01T17:03:19.359Z,17.89
2022-09-01T17:06:51.298Z,17.85
2022-09-01T17:10:42.015Z,17.80
2022-09-01T17:13:56.386Z,17.72
2022-09-01T17:17:09.482Z,17.72
2022-09-01T17:20:15.039Z,17.69
2022-09-01T17:23:28.883Z,17.71
2022-09-01T17:26:32.940Z,17.75
2022-09-01T17:29:45.434Z,17.79
2022-09-01T17:33:13.044Z,17.82
2022-09-01T17:36:46.118Z,17.84
2022-09-01T17:39:53.582Z,17.79
2022-09-01T17:43:03.503Z,17.83
2022-09-01T17:46:27.889Z,17.87
2022-09-01T17:50:02.661Z,17.94
2022-09-01T17:53:34.972Z,17.92
2022-09-01T17:56:48.234Z,17.91
2022-09-01T18:00:07.489Z,17.84
2022-09-01T18:03:46.320Z,17.87
2022-09-01T18:07:04.543Z,17.90
2022-09-01T18:10:12.631Z,17.84
2022-09-01T18:14:04.369Z,17.83
2022-09-01T18:17:23.585Z,17.75
2022-09-01T18:20:47.330Z,17.78
2022-09-01T18:23:55.613Z,17.75
2022-09-01T18:26:59.148Z,17.76
2022-09-01T18:30:03.621Z,17.76
2022-09-01T18:33:30.181Z,17.80
2022-09-01T18:37:02.924Z,17.87
2022-09-01T18:40:25.536Z,17.88
2022-09-01T18:43:50.861Z,17.92
2022-09-01T18:46:56.922Z,17.98
2022-09-01T18:50:35.340Z,17.99
2022-09-01T18:53:53.568Z,17.89
2022-09-01T18:57:06.766Z,17.81
2022-09-01T19:00:18.854Z,17.82
2022-09-01T19:03:51.851Z,17.86
2022-09-01T19:07:37.306Z,17.82
2022-09-01T19:10:52.619Z,17.71
2022-09-01T19:17:46.446Z,17.56
2022-09-01T19:21:06.636Z,17.51
2022-09-01T19:24:45.092Z,17.47
2022-09-01T19:28:01.832Z,17.40
2022-09-01T19:31:18.505Z,17.39
2022-09-01T19:34:27.885Z,17.34
2022-09-01T19:37:32.217Z,17.27
2022-09-01T19:40:39.196Z,17.27
2022-09-01T19:43:43.978Z,17.23
2022-09-01T19:46:53.534Z,17.29
2022-09-01T19:50:09.699Z,17.26
2022-09-01T19:53:19.343Z,17.25
2022-09-01T19:56:31.536Z,17.28
2022-09-01T19:59:54.291Z,17.24
2022-09-01T20:03:08.455Z,17.24
2022-09-01T20:06:19.695Z,17.20
2022-09-01T20:09:40.839Z,17.22
2022-09-01T20:12:53.680Z,17.20
2022-09-01T20:16:24.309Z,17.21
2022-09-01T20:20:11.121Z,17.21
2022-09-01T20:23:37.224Z,17.24
2022-09-01T20:27:05.332Z,17.18
2022-09-01T20:30:16.585Z,17.12
2022-09-01T20:33:44.693Z,17.04
2022-09-01T20:36:57.455Z,16.98
2022-09-01T20:40:19.964Z,16.92
2022-09-01T20:43:29.926Z,16.91
2022-09-01T20:46:33.925Z,16.87
2022-09-01T20:49:39.477Z,16.91
2022-09-01T20:52:56.429Z,16.87
2022-09-01T20:56:21.578Z,16.84
2022-09-01T20:59:48.447Z,16.81
2022-09-01T21:03:06.912Z,16.74
2022-09-01T21:06:50.306Z,16.68
2022-09-01T21:10:01.156Z,16.56
2022-09-01T21:13:07.392Z,16.43
2022-09-01T21:16:28.083Z,16.38
2022-09-01T21:19:47.193Z,16.36
2022-09-01T21:22:52.115Z,16.32
2022-09-01T21:25:56.228Z,16.27
2022-09-01T21:29:05.819Z,16.23
2022-09-01T21:32:09.530Z,16.17
2022-09-01T21:35:17.512Z,16.19
2022-09-01T21:38:21.130Z,16.13
2022-09-01T21:41:25.179Z,16.15
2022-09-01T21:44:29.591Z,16.17
2022-09-01T21:47:34.707Z,16.14
2022-09-01T21:50:40.094Z,16.19
2022-09-01T21:53:44.459Z,16.17
2022-09-01T21:56:48.086Z,16.08
2022-09-01T21:59:52.469Z,16.24
2022-09-01T22:02:58.197Z,16.25
2022-09-01T22:06:02.148Z,16.18
2022-09-01T22:09:20.474Z,16.13
2022-09-01T22:12:25.156Z,16.08
2022-09-01T22:15:28.894Z,16.01
2022-09-01T22:18:32.686Z,16.04
2022-09-01T22:21:37.318Z,16.09
2022-09-01T22:24:40.807Z,16.18
2022-09-01T22:27:44.714Z,16.11
2022-09-01T22:30:50.208Z,16.30
2022-09-01T22:33:54.716Z,16.39
2022-09-01T22:36:58.882Z,16.39
2022-09-01T22:40:02.564Z,16.43
2022-09-01T22:43:06.644Z,16.62
2022-09-01T22:46:10.394Z,16.56
2022-09-01T22:49:14.260Z,16.46
2022-09-01T22:52:17.858Z,16.51
2022-09-01T22:55:22.240Z,16.52
2022-09-01T22:58:25.824Z,16.50
2022-09-01T23:01:33.308Z,16.41
2022-09-01T23:04:40.852Z,16.42
2022-09-01T23:07:44.266Z,16.50
2022-09-01T23:10:47.395Z,16.62
2022-09-01T23:13:51.828Z,16.64
2022-09-01T23:16:56.830Z,16.62
2022-09-01T23:20:03.173Z,16.63
2022-09-01T23:23:06.954Z,16.72
2022-09-01T23:26:12.564Z,16.73
2022-09-01T23:29:16.595Z,16.77
2022-09-01T23:32:20.975Z,16.89
2022-09-01T23:35:24.045Z,16.92
2022-09-01T23:38:27.508Z,16.95
2022-09-01T23:41:33.584Z,17.01
2022-09-01T23:44:37.613Z,17.15
2022-09-01T23:47:42.480Z,17.27
2022-09-01T23:50:54.150Z,17.37
2022-09-01T23:53:57.468Z,17.38
2022-09-01T23:57:01.606Z,17.41
